sensor_id;sensor_type;location;lat;lon;timestamp;temperature;humidity
13409;DHT22;6775;49.574;11.170;2023-03-11T00:00:44;3.00;99.90
13409;DHT22;6775;49.574;11.170;2023-03-11T00:03:15;3.10;99.90
13409;DHT22;6775;49.574;11.170;2023-03-11T00:05:45;3.10;99.90
13409;DHT22;6775;49.574;11.170;2023-03-11T00:08:16;3.10;99.90
13409;DHT22;6775;49.574;11.170;2023-03-11T00:10:46;3.10;99.90
13409;DHT22;6775;49.574;11.170;2023-03-11T00:13:16;3.00;99.90
13409;DHT22;6775;49.574;11.170;2023-03-11T00:15:46;3.00;99.90
13409;DHT22;6775;49.574;11.170;2023-03-11T00:18:15;3.00;99.90
13409;DHT22;6775;49.574;11.170;2023-03-11T00:20:44;3.00;99.90
13409;DHT22;6775;49.574;11.170;2023-03-11T00:23:14;3.00;99.90
13409;DHT22;6775;49.574;11.170;2023-03-11T00:25:43;3.00;99.90
13409;DHT22;6775;49.574;11.170;2023-03-11T00:28:12;3.00;99.90
13409;DHT22;6775;49.574;11.170;2023-03-11T00:30:43;2.90;99.90
13409;DHT22;6775;49.574;11.170;2023-03-11T00:33:13;2.90;99.90
13409;DHT22;6775;49.574;11.170;2023-03-11T00:35:41;2.90;99.90
13409;DHT22;6775;49.574;11.170;2023-03-11T00:38:12;2.90;99.90
13409;DHT22;6775;49.574;11.170;2023-03-11T00:40:41;2.90;99.90
13409;DHT22;6775;49.574;11.170;2023-03-11T00:43:09;2.90;99.90
13409;DHT22;6775;49.574;11.170;2023-03-11T00:45:37;2.90;99.90
13409;DHT22;6775;49.574;11.170;2023-03-11T00:48:07;2.90;99.90
13409;DHT22;6775;49.574;11.170;2023-03-11T00:50:36;3.00;99.90
13409;DHT22;6775;49.574;11.170;2023-03-11T00:53:04;3.10;99.90
13409;DHT22;6775;49.574;11.170;2023-03-11T00:55:33;3.10;99.90
13409;DHT22;6775;49.574;11.170;2023-03-11T00:58:03;3.10;99.90
13409;DHT22;6775;49.574;11.170;2023-03-11T01:00:32;3.00;99.90
13409;DHT22;6775;49.574;11.170;2023-03-11T01:03:00;3.00;99.90
13409;DHT22;6775;49.574;11.170;2023-03-11T01:05:30;3.00;99.90
13409;DHT22;6775;49.574;11.170;2023-03-11T01:07:59;2.90;99.90
13409;DHT22;6775;49.574;11.170;2023-03-11T01:10:28;2.80;99.90
13409;DHT22;6775;49.574;11.170;2023-03-11T01:12:57;2.80;99.90
13409;DHT22;6775;49.574;11.170;2023-03-11T01:15:26;2.70;99.90
13409;DHT22;6775;49.574;11.170;2023-03-11T01:17:55;2.70;99.90
13409;DHT22;6775;49.574;11.170;2023-03-11T01:20:23;2.70;99.90
13409;DHT22;6775;49.574;11.170;2023-03-11T01:22:52;2.70;99.90
13409;DHT22;6775;49.574;11.170;2023-03-11T01:25:22;2.60;99.90
13409;DHT22;6775;49.574;11.170;2023-03-11T01:27:50;2.70;99.90
13409;DHT22;6775;49.574;11.170;2023-03-11T01:30:20;2.70;99.90
13409;DHT22;6775;49.574;11.170;2023-03-11T01:32:48;2.70;99.90
13409;DHT22;6775;49.574;11.170;2023-03-11T01:35:18;2.70;99.90
13409;DHT22;6775;49.574;11.170;2023-03-11T01:37:45;2.70;99.90
13409;DHT22;6775;49.574;11.170;2023-03-11T01:40:19;2.80;99.90
13409;DHT22;6775;49.574;11.170;2023-03-11T01:42:48;2.80;99.90
13409;DHT22;6775;49.574;11.170;2023-03-11T01:45:35;2.80;99.90
13409;DHT22;6775;49.574;11.170;2023-03-11T01:48:05;2.80;99.90
13409;DHT22;6775;49.574;11.170;2023-03-11T01:50:35;2.80;99.90
13409;DHT22;6775;49.574;11.170;2023-03-11T01:53:04;2.80;99.90
13409;DHT22;6775;49.574;11.170;2023-03-11T01:55:34;2.80;99.90
13409;DHT22;6775;49.574;11.170;2023-03-11T01:58:05;2.80;99.90
13409;DHT22;6775;49.574;11.170;2023-03-11T02:00:34;2.80;99.90
13409;DHT22;6775;49.574;11.170;2023-03-11T02:03:08;2.80;99.90
13409;DHT22;6775;49.574;11.170;2023-03-11T02:05:38;2.80;99.90
13409;DHT22;6775;49.574;11.170;2023-03-11T02:08:07;2.80;99.90
13409;DHT22;6775;49.574;11.170;2023-03-11T02:10:38;2.80;99.90
13409;DHT22;6775;49.574;11.170;2023-03-11T02:13:07;2.70;99.90
13409;DHT22;6775;49.574;11.170;2023-03-11T02:15:36;2.70;99.90
13409;DHT22;6775;49.574;11.170;2023-03-11T02:18:06;2.70;99.90
13409;DHT22;6775;49.574;11.170;2023-03-11T02:20:40;2.70;99.90
13409;DHT22;6775;49.574;11.170;2023-03-11T02:23:09;2.60;99.90
13409;DHT22;6775;49.574;11.170;2023-03-11T02:25:45;2.60;99.90
13409;DHT22;6775;49.574;11.170;2023-03-11T02:28:18;2.60;99.90
13409;DHT22;6775;49.574;11.170;2023-03-11T02:30:47;2.60;99.90
13409;DHT22;6775;49.574;11.170;2023-03-11T02:33:15;2.60;99.90
13409;DHT22;6775;49.574;11.170;2023-03-11T02:35:44;2.60;99.90
13409;DHT22;6775;49.574;11.170;2023-03-11T02:38:12;2.60;99.90
13409;DHT22;6775;49.574;11.170;2023-03-11T02:40:54;2.60;99.90
13409;DHT22;6775;49.574;11.170;2023-03-11T02:43:28;2.50;99.90
13409;DHT22;6775;49.574;11.170;2023-03-11T02:45:59;2.50;99.90
13409;DHT22;6775;49.574;11.170;2023-03-11T02:48:29;2.40;99.90
13409;DHT22;6775;49.574;11.170;2023-03-11T02:50:58;2.40;99.90
13409;DHT22;6775;49.574;11.170;2023-03-11T02:53:27;2.40;99.90
13409;DHT22;6775;49.574;11.170;2023-03-11T02:55:57;2.40;99.90
13409;DHT22;6775;49.574;11.170;2023-03-11T02:58:26;2.50;99.90
13409;DHT22;6775;49.574;11.170;2023-03-11T03:00:53;2.50;99.90
13409;DHT22;6775;49.574;11.170;2023-03-11T03:03:21;2.50;99.90
13409;DHT22;6775;49.574;11.170;2023-03-11T03:05:49;2.50;99.90
13409;DHT22;6775;49.574;11.170;2023-03-11T03:08:17;2.40;99.90
13409;DHT22;6775;49.574;11.170;2023-03-11T03:10:45;2.40;99.90
13409;DHT22;6775;49.574;11.170;2023-03-11T03:13:13;2.40;99.90
13409;DHT22;6775;49.574;11.170;2023-03-11T03:15:42;2.40;99.90
13409;DHT22;6775;49.574;11.170;2023-03-11T03:18:09;2.40;99.90
13409;DHT22;6775;49.574;11.170;2023-03-11T03:20:37;2.40;99.90
13409;DHT22;6775;49.574;11.170;2023-03-11T03:23:05;2.40;99.90
13409;DHT22;6775;49.574;11.170;2023-03-11T03:25:33;2.40;99.90
13409;DHT22;6775;49.574;11.170;2023-03-11T03:28:01;2.40;99.90
13409;DHT22;6775;49.574;11.170;2023-03-11T03:30:28;2.40;99.90
13409;DHT22;6775;49.574;11.170;2023-03-11T03:32:58;2.40;99.90
13409;DHT22;6775;49.574;11.170;2023-03-11T03:35:26;2.30;99.90
13409;DHT22;6775;49.574;11.170;2023-03-11T03:37:54;2.30;99.90
13409;DHT22;6775;49.574;11.170;2023-03-11T03:40:21;2.30;99.90
13409;DHT22;6775;49.574;11.170;2023-03-11T03:42:49;2.20;99.90
13409;DHT22;6775;49.574;11.170;2023-03-11T03:45:17;2.20;99.90
13409;DHT22;6775;49.574;11.170;2023-03-11T03:47:45;2.20;99.90
13409;DHT22;6775;49.574;11.170;2023-03-11T03:50:14;2.20;99.90
13409;DHT22;6775;49.574;11.170;2023-03-11T03:52:42;2.20;99.90
13409;DHT22;6775;49.574;11.170;2023-03-11T03:55:09;2.20;99.90
13409;DHT22;6775;49.574;11.170;2023-03-11T03:57:37;2.20;99.90
13409;DHT22;6775;49.574;11.170;2023-03-11T04:00:06;2.20;99.90
13409;DHT22;6775;49.574;11.170;2023-03-11T04:02:35;2.20;99.90
13409;DHT22;6775;49.574;11.170;2023-03-11T04:05:04;2.10;99.90
13409;DHT22;6775;49.574;11.170;2023-03-11T04:07:34;2.20;99.90
13409;DHT22;6775;49.574;11.170;2023-03-11T04:10:03;2.20;99.90
13409;DHT22;6775;49.574;11.170;2023-03-11T04:12:31;2.20;99.90
13409;DHT22;6775;49.574;11.170;2023-03-11T04:14:59;2.20;99.90
13409;DHT22;6775;49.574;11.170;2023-03-11T04:17:26;2.20;99.90
13409;DHT22;6775;49.574;11.170;2023-03-11T04:19:54;2.20;99.90
13409;DHT22;6775;49.574;11.170;2023-03-11T04:22:22;2.10;99.90
13409;DHT22;6775;49.574;11.170;2023-03-11T04:24:51;2.10;99.90
13409;DHT22;6775;49.574;11.170;2023-03-11T04:27:19;2.00;99.90
13409;DHT22;6775;49.574;11.170;2023-03-11T04:29:47;2.00;99.90
13409;DHT22;6775;49.574;11.170;2023-03-11T04:32:14;2.10;99.90
13409;DHT22;6775;49.574;11.170;2023-03-11T04:34:42;2.10;99.90
13409;DHT22;6775;49.574;11.170;2023-03-11T04:37:10;2.10;99.90
13409;DHT22;6775;49.574;11.170;2023-03-11T04:39:38;2.00;99.90
13409;DHT22;6775;49.574;11.170;2023-03-11T04:42:07;2.00;99.90
13409;DHT22;6775;49.574;11.170;2023-03-11T04:44:35;2.00;99.90
13409;DHT22;6775;49.574;11.170;2023-03-11T04:47:03;2.00;99.90
13409;DHT22;6775;49.574;11.170;2023-03-11T04:49:31;1.90;99.90
13409;DHT22;6775;49.574;11.170;2023-03-11T04:51:59;2.00;99.90
13409;DHT22;6775;49.574;11.170;2023-03-11T04:54:27;2.00;99.90
13409;DHT22;6775;49.574;11.170;2023-03-11T04:56:54;2.00;99.90
13409;DHT22;6775;49.574;11.170;2023-03-11T04:59:24;2.00;99.90
13409;DHT22;6775;49.574;11.170;2023-03-11T05:01:51;2.00;99.90
13409;DHT22;6775;49.574;11.170;2023-03-11T05:04:19;2.00;99.90
13409;DHT22;6775;49.574;11.170;2023-03-11T05:06:47;2.00;99.90
13409;DHT22;6775;49.574;11.170;2023-03-11T05:09:17;2.00;99.90
13409;DHT22;6775;49.574;11.170;2023-03-11T05:11:45;2.00;99.90
13409;DHT22;6775;49.574;11.170;2023-03-11T05:14:13;2.00;99.90
13409;DHT22;6775;49.574;11.170;2023-03-11T05:16:42;2.00;99.90
13409;DHT22;6775;49.574;11.170;2023-03-11T05:19:10;2.00;99.90
13409;DHT22;6775;49.574;11.170;2023-03-11T05:21:52;2.00;99.90
13409;DHT22;6775;49.574;11.170;2023-03-11T05:24:20;2.00;99.90
13409;DHT22;6775;49.574;11.170;2023-03-11T05:26:47;2.00;99.90
13409;DHT22;6775;49.574;11.170;2023-03-11T05:29:15;2.00;99.90
13409;DHT22;6775;49.574;11.170;2023-03-11T05:31:44;2.00;99.90
13409;DHT22;6775;49.574;11.170;2023-03-11T05:34:13;2.00;99.90
13409;DHT22;6775;49.574;11.170;2023-03-11T05:36:40;2.00;99.90
13409;DHT22;6775;49.574;11.170;2023-03-11T05:39:08;1.90;99.90
13409;DHT22;6775;49.574;11.170;2023-03-11T05:41:36;1.90;99.90
13409;DHT22;6775;49.574;11.170;2023-03-11T05:44:04;1.90;99.90
13409;DHT22;6775;49.574;11.170;2023-03-11T05:46:32;1.90;99.90
13409;DHT22;6775;49.574;11.170;2023-03-11T05:49:02;1.90;99.90
13409;DHT22;6775;49.574;11.170;2023-03-11T05:51:30;1.90;99.90
13409;DHT22;6775;49.574;11.170;2023-03-11T05:53:58;1.90;99.90
13409;DHT22;6775;49.574;11.170;2023-03-11T05:56:25;1.80;99.90
13409;DHT22;6775;49.574;11.170;2023-03-11T05:58:56;1.80;99.90
13409;DHT22;6775;49.574;11.170;2023-03-11T06:01:24;1.80;99.90
13409;DHT22;6775;49.574;11.170;2023-03-11T06:03:52;1.80;99.90
13409;DHT22;6775;49.574;11.170;2023-03-11T06:06:21;1.80;99.90
13409;DHT22;6775;49.574;11.170;2023-03-11T06:08:49;1.80;99.90
13409;DHT22;6775;49.574;11.170;2023-03-11T06:11:17;1.90;99.90
13409;DHT22;6775;49.574;11.170;2023-03-11T06:13:45;1.90;99.90
13409;DHT22;6775;49.574;11.170;2023-03-11T06:16:13;1.90;99.90
13409;DHT22;6775;49.574;11.170;2023-03-11T06:18:41;1.90;99.90
13409;DHT22;6775;49.574;11.170;2023-03-11T06:21:10;1.90;99.90
13409;DHT22;6775;49.574;11.170;2023-03-11T06:23:44;2.00;99.90
13409;DHT22;6775;49.574;11.170;2023-03-11T06:26:14;2.00;99.90
13409;DHT22;6775;49.574;11.170;2023-03-11T06:28:42;2.00;99.90
13409;DHT22;6775;49.574;11.170;2023-03-11T06:31:14;2.00;99.90
13409;DHT22;6775;49.574;11.170;2023-03-11T06:33:42;2.20;99.90
13409;DHT22;6775;49.574;11.170;2023-03-11T06:36:12;2.20;99.90
13409;DHT22;6775;49.574;11.170;2023-03-11T06:38:40;2.20;99.90
13409;DHT22;6775;49.574;11.170;2023-03-11T06:41:10;2.20;99.90
13409;DHT22;6775;49.574;11.170;2023-03-11T06:43:37;2.20;99.90
13409;DHT22;6775;49.574;11.170;2023-03-11T06:46:09;2.20;99.90
13409;DHT22;6775;49.574;11.170;2023-03-11T06:48:38;2.30;99.90
13409;DHT22;6775;49.574;11.170;2023-03-11T06:51:06;2.30;99.90
13409;DHT22;6775;49.574;11.170;2023-03-11T06:53:33;2.30;99.90
13409;DHT22;6775;49.574;11.170;2023-03-11T06:56:03;2.20;99.90
13409;DHT22;6775;49.574;11.170;2023-03-11T06:58:34;2.20;99.90
13409;DHT22;6775;49.574;11.170;2023-03-11T07:01:04;2.10;99.90
13409;DHT22;6775;49.574;11.170;2023-03-11T07:03:32;2.00;99.90
13409;DHT22;6775;49.574;11.170;2023-03-11T07:06:00;1.90;99.90
13409;DHT22;6775;49.574;11.170;2023-03-11T07:08:32;1.90;99.90
13409;DHT22;6775;49.574;11.170;2023-03-11T07:11:04;1.90;99.90
13409;DHT22;6775;49.574;11.170;2023-03-11T07:13:34;1.80;99.90
13409;DHT22;6775;49.574;11.170;2023-03-11T07:16:04;1.70;99.90
13409;DHT22;6775;49.574;11.170;2023-03-11T07:18:33;1.70;99.90
13409;DHT22;6775;49.574;11.170;2023-03-11T07:21:02;1.80;99.90
13409;DHT22;6775;49.574;11.170;2023-03-11T07:23:31;1.80;99.90
13409;DHT22;6775;49.574;11.170;2023-03-11T07:25:59;1.80;99.90
13409;DHT22;6775;49.574;11.170;2023-03-11T07:28:27;1.80;99.90
13409;DHT22;6775;49.574;11.170;2023-03-11T07:30:56;1.80;99.90
13409;DHT22;6775;49.574;11.170;2023-03-11T07:33:24;1.70;99.90
13409;DHT22;6775;49.574;11.170;2023-03-11T07:35:52;1.70;99.90
13409;DHT22;6775;49.574;11.170;2023-03-11T07:38:20;1.70;99.90
13409;DHT22;6775;49.574;11.170;2023-03-11T07:40:56;1.80;99.90
13409;DHT22;6775;49.574;11.170;2023-03-11T07:43:24;1.80;99.90
13409;DHT22;6775;49.574;11.170;2023-03-11T07:46:02;1.90;99.90
13409;DHT22;6775;49.574;11.170;2023-03-11T07:48:30;2.10;99.90
13409;DHT22;6775;49.574;11.170;2023-03-11T07:51:03;2.20;99.90
13409;DHT22;6775;49.574;11.170;2023-03-11T07:53:31;2.40;99.90
13409;DHT22;6775;49.574;11.170;2023-03-11T07:55:59;2.50;99.90
13409;DHT22;6775;49.574;11.170;2023-03-11T07:58:27;2.60;99.90
13409;DHT22;6775;49.574;11.170;2023-03-11T08:00:55;2.70;99.90
13409;DHT22;6775;49.574;11.170;2023-03-11T08:03:24;2.80;99.90
13409;DHT22;6775;49.574;11.170;2023-03-11T08:05:52;2.80;99.90
13409;DHT22;6775;49.574;11.170;2023-03-11T08:08:20;3.00;99.90
13409;DHT22;6775;49.574;11.170;2023-03-11T08:10:48;3.20;99.90
13409;DHT22;6775;49.574;11.170;2023-03-11T08:13:16;3.70;99.90
13409;DHT22;6775;49.574;11.170;2023-03-11T08:15:44;4.00;99.90
13409;DHT22;6775;49.574;11.170;2023-03-11T08:18:11;4.20;99.90
13409;DHT22;6775;49.574;11.170;2023-03-11T08:20:41;4.40;99.90
13409;DHT22;6775;49.574;11.170;2023-03-11T08:23:10;4.40;99.90
13409;DHT22;6775;49.574;11.170;2023-03-11T08:25:39;4.50;99.90
13409;DHT22;6775;49.574;11.170;2023-03-11T08:28:07;4.50;99.90
13409;DHT22;6775;49.574;11.170;2023-03-11T08:30:35;4.40;99.90
13409;DHT22;6775;49.574;11.170;2023-03-11T08:33:03;4.50;99.90
13409;DHT22;6775;49.574;11.170;2023-03-11T08:35:31;4.50;99.90
13409;DHT22;6775;49.574;11.170;2023-03-11T08:38:00;4.50;99.90
13409;DHT22;6775;49.574;11.170;2023-03-11T08:40:28;4.70;99.90
13409;DHT22;6775;49.574;11.170;2023-03-11T08:42:56;4.90;99.90
13409;DHT22;6775;49.574;11.170;2023-03-11T08:45:24;5.50;99.90
13409;DHT22;6775;49.574;11.170;2023-03-11T08:47:52;6.00;99.90
13409;DHT22;6775;49.574;11.170;2023-03-11T08:50:20;6.10;99.90
13409;DHT22;6775;49.574;11.170;2023-03-11T08:52:47;6.40;99.90
13409;DHT22;6775;49.574;11.170;2023-03-11T08:55:17;6.90;99.90
13409;DHT22;6775;49.574;11.170;2023-03-11T08:57:50;7.60;99.90
13409;DHT22;6775;49.574;11.170;2023-03-11T09:00:19;8.30;99.90
13409;DHT22;6775;49.574;11.170;2023-03-11T09:02:47;8.70;99.80
13409;DHT22;6775;49.574;11.170;2023-03-11T09:05:15;8.20;99.30
13409;DHT22;6775;49.574;11.170;2023-03-11T09:07:43;7.60;99.90
13409;DHT22;6775;49.574;11.170;2023-03-11T09:10:12;6.90;99.90
13409;DHT22;6775;49.574;11.170;2023-03-11T09:12:41;6.40;99.90
13409;DHT22;6775;49.574;11.170;2023-03-11T09:15:09;6.00;99.90
13409;DHT22;6775;49.574;11.170;2023-03-11T09:17:37;5.70;99.90
13409;DHT22;6775;49.574;11.170;2023-03-11T09:20:06;5.40;99.90
13409;DHT22;6775;49.574;11.170;2023-03-11T09:22:34;5.10;99.90
13409;DHT22;6775;49.574;11.170;2023-03-11T09:25:02;4.90;99.90
13409;DHT22;6775;49.574;11.170;2023-03-11T09:27:30;4.90;99.90
13409;DHT22;6775;49.574;11.170;2023-03-11T09:29:59;4.80;99.90
13409;DHT22;6775;49.574;11.170;2023-03-11T09:32:27;4.80;99.90
13409;DHT22;6775;49.574;11.170;2023-03-11T09:34:55;4.70;99.90
13409;DHT22;6775;49.574;11.170;2023-03-11T09:37:23;4.50;99.90
13409;DHT22;6775;49.574;11.170;2023-03-11T09:39:51;4.40;99.90
13409;DHT22;6775;49.574;11.170;2023-03-11T09:42:21;4.40;99.90
13409;DHT22;6775;49.574;11.170;2023-03-11T09:44:59;4.40;99.90
13409;DHT22;6775;49.574;11.170;2023-03-11T09:47:36;4.30;99.90
13409;DHT22;6775;49.574;11.170;2023-03-11T09:50:28;4.30;99.90
13409;DHT22;6775;49.574;11.170;2023-03-11T09:53:16;4.30;99.90
13409;DHT22;6775;49.574;11.170;2023-03-11T09:55:49;4.40;99.90
13409;DHT22;6775;49.574;11.170;2023-03-11T09:58:22;4.40;99.90
13409;DHT22;6775;49.574;11.170;2023-03-11T10:00:54;4.50;99.90
13409;DHT22;6775;49.574;11.170;2023-03-11T10:03:31;4.50;99.90
13409;DHT22;6775;49.574;11.170;2023-03-11T10:06:05;4.40;99.90
13409;DHT22;6775;49.574;11.170;2023-03-11T10:08:41;4.30;99.90
13409;DHT22;6775;49.574;11.170;2023-03-11T10:11:18;4.40;99.90
13409;DHT22;6775;49.574;11.170;2023-03-11T10:13:58;4.50;99.90
13409;DHT22;6775;49.574;11.170;2023-03-11T10:16:34;4.70;99.90
13409;DHT22;6775;49.574;11.170;2023-03-11T10:19:10;4.90;99.90
13409;DHT22;6775;49.574;11.170;2023-03-11T10:21:49;5.00;99.90
13409;DHT22;6775;49.574;11.170;2023-03-11T10:24:35;5.00;99.90
13409;DHT22;6775;49.574;11.170;2023-03-11T10:27:09;5.00;99.90
13409;DHT22;6775;49.574;11.170;2023-03-11T10:29:46;4.90;99.90
13409;DHT22;6775;49.574;11.170;2023-03-11T10:32:19;4.70;99.90
13409;DHT22;6775;49.574;11.170;2023-03-11T10:34:51;4.60;99.90
13409;DHT22;6775;49.574;11.170;2023-03-11T10:37:24;4.30;99.90
13409;DHT22;6775;49.574;11.170;2023-03-11T10:40:18;4.20;99.90
13409;DHT22;6775;49.574;11.170;2023-03-11T10:42:50;4.10;99.90
13409;DHT22;6775;49.574;11.170;2023-03-11T10:45:18;4.10;99.90
13409;DHT22;6775;49.574;11.170;2023-03-11T10:47:50;4.20;99.90
13409;DHT22;6775;49.574;11.170;2023-03-11T10:50:19;4.20;99.90
13409;DHT22;6775;49.574;11.170;2023-03-11T10:53:06;4.20;99.90
13409;DHT22;6775;49.574;11.170;2023-03-11T10:55:35;4.30;99.90
13409;DHT22;6775;49.574;11.170;2023-03-11T10:58:12;4.20;99.90
13409;DHT22;6775;49.574;11.170;2023-03-11T11:00:41;4.10;99.90
13409;DHT22;6775;49.574;11.170;2023-03-11T11:03:20;4.10;99.90
13409;DHT22;6775;49.574;11.170;2023-03-11T11:05:58;4.10;99.90
13409;DHT22;6775;49.574;11.170;2023-03-11T11:08:27;4.00;99.90
13409;DHT22;6775;49.574;11.170;2023-03-11T11:10:56;4.00;99.90
13409;DHT22;6775;49.574;11.170;2023-03-11T11:13:25;4.00;99.90
13409;DHT22;6775;49.574;11.170;2023-03-11T11:15:58;3.90;99.90
13409;DHT22;6775;49.574;11.170;2023-03-11T11:18:31;3.80;99.90
13409;DHT22;6775;49.574;11.170;2023-03-11T11:21:02;3.70;99.90
13409;DHT22;6775;49.574;11.170;2023-03-11T11:23:33;3.60;99.90
13409;DHT22;6775;49.574;11.170;2023-03-11T11:26:05;3.50;99.90
13409;DHT22;6775;49.574;11.170;2023-03-11T11:28:34;3.40;99.90
13409;DHT22;6775;49.574;11.170;2023-03-11T11:31:04;3.40;99.90
13409;DHT22;6775;49.574;11.170;2023-03-11T11:33:39;3.30;99.90
13409;DHT22;6775;49.574;11.170;2023-03-11T11:36:17;3.30;99.90
13409;DHT22;6775;49.574;11.170;2023-03-11T11:38:45;3.40;99.90
13409;DHT22;6775;49.574;11.170;2023-03-11T11:41:16;3.60;99.90
13409;DHT22;6775;49.574;11.170;2023-03-11T11:43:48;3.90;99.90
13409;DHT22;6775;49.574;11.170;2023-03-11T11:46:20;4.20;99.90
13409;DHT22;6775;49.574;11.170;2023-03-11T11:48:55;4.50;99.90
13409;DHT22;6775;49.574;11.170;2023-03-11T11:51:30;4.70;99.90
13409;DHT22;6775;49.574;11.170;2023-03-11T11:54:04;5.00;99.90
13409;DHT22;6775;49.574;11.170;2023-03-11T11:56:33;5.10;99.90
13409;DHT22;6775;49.574;11.170;2023-03-11T11:59:01;5.30;99.90
13409;DHT22;6775;49.574;11.170;2023-03-11T12:01:38;5.30;99.90
13409;DHT22;6775;49.574;11.170;2023-03-11T12:04:43;5.40;99.90
13409;DHT22;6775;49.574;11.170;2023-03-11T12:07:24;5.60;99.90
13409;DHT22;6775;49.574;11.170;2023-03-11T12:09:58;5.60;99.90
13409;DHT22;6775;49.574;11.170;2023-03-11T12:12:53;5.40;99.90
13409;DHT22;6775;49.574;11.170;2023-03-11T12:15:29;5.30;99.90
13409;DHT22;6775;49.574;11.170;2023-03-11T12:18:03;5.10;99.90
13409;DHT22;6775;49.574;11.170;2023-03-11T12:20:38;5.10;99.90
13409;DHT22;6775;49.574;11.170;2023-03-11T12:23:16;5.00;99.90
13409;DHT22;6775;49.574;11.170;2023-03-11T12:25:59;5.00;99.90
13409;DHT22;6775;49.574;11.170;2023-03-11T12:28:36;5.00;99.90
13409;DHT22;6775;49.574;11.170;2023-03-11T12:31:08;5.30;99.90
13409;DHT22;6775;49.574;11.170;2023-03-11T12:33:39;5.60;99.90
13409;DHT22;6775;49.574;11.170;2023-03-11T12:36:21;6.00;99.90
13409;DHT22;6775;49.574;11.170;2023-03-11T12:38:50;6.40;97.70
13409;DHT22;6775;49.574;11.170;2023-03-11T12:41:30;6.50;96.60
13409;DHT22;6775;49.574;11.170;2023-03-11T12:44:01;6.50;96.60
13409;DHT22;6775;49.574;11.170;2023-03-11T12:49:36;6.20;97.10
13409;DHT22;6775;49.574;11.170;2023-03-11T12:55:35;6.00;96.50
13409;DHT22;6775;49.574;11.170;2023-03-11T12:58:32;5.80;96.60
13409;DHT22;6775;49.574;11.170;2023-03-11T13:04:29;5.60;96.50
13409;DHT22;6775;49.574;11.170;2023-03-11T13:10:03;5.70;96.50
13409;DHT22;6775;49.574;11.170;2023-03-11T13:12:40;5.90;96.80
13409;DHT22;6775;49.574;11.170;2023-03-11T13:15:35;5.90;96.10
13409;DHT22;6775;49.574;11.170;2023-03-11T13:18:14;5.90;95.80
13409;DHT22;6775;49.574;11.170;2023-03-11T13:21:01;5.90;95.30
13409;DHT22;6775;49.574;11.170;2023-03-11T13:23:33;5.70;95.50
13409;DHT22;6775;49.574;11.170;2023-03-11T13:26:24;5.60;96.10
13409;DHT22;6775;49.574;11.170;2023-03-11T13:29:24;5.40;95.60
13409;DHT22;6775;49.574;11.170;2023-03-11T13:34:52;5.00;96.70
13409;DHT22;6775;49.574;11.170;2023-03-11T13:37:28;4.80;97.80
13409;DHT22;6775;49.574;11.170;2023-03-11T13:40:10;4.60;98.70
13409;DHT22;6775;49.574;11.170;2023-03-11T13:42:43;4.50;99.20
13409;DHT22;6775;49.574;11.170;2023-03-11T13:45:24;4.30;99.90
13409;DHT22;6775;49.574;11.170;2023-03-11T13:47:57;4.30;99.90
13409;DHT22;6775;49.574;11.170;2023-03-11T13:50:28;4.20;99.90
13409;DHT22;6775;49.574;11.170;2023-03-11T13:52:58;4.20;99.90
13409;DHT22;6775;49.574;11.170;2023-03-11T13:55:33;4.20;99.90
13409;DHT22;6775;49.574;11.170;2023-03-11T13:58:13;4.20;99.90
13409;DHT22;6775;49.574;11.170;2023-03-11T14:00:47;4.30;99.90
13409;DHT22;6775;49.574;11.170;2023-03-11T14:03:16;4.30;99.90
13409;DHT22;6775;49.574;11.170;2023-03-11T14:05:49;4.30;99.90
13409;DHT22;6775;49.574;11.170;2023-03-11T14:08:20;4.10;99.90
13409;DHT22;6775;49.574;11.170;2023-03-11T14:10:55;4.00;99.90
13409;DHT22;6775;49.574;11.170;2023-03-11T14:13:24;4.00;99.90
13409;DHT22;6775;49.574;11.170;2023-03-11T14:15:58;3.90;99.90
13409;DHT22;6775;49.574;11.170;2023-03-11T14:18:35;3.80;99.90
13409;DHT22;6775;49.574;11.170;2023-03-11T14:21:06;3.80;99.90
13409;DHT22;6775;49.574;11.170;2023-03-11T14:23:40;3.90;99.90
13409;DHT22;6775;49.574;11.170;2023-03-11T14:26:13;3.90;99.90
13409;DHT22;6775;49.574;11.170;2023-03-11T14:28:43;3.90;99.90
13409;DHT22;6775;49.574;11.170;2023-03-11T14:31:23;4.00;99.90
13409;DHT22;6775;49.574;11.170;2023-03-11T14:33:56;4.00;99.90
13409;DHT22;6775;49.574;11.170;2023-03-11T14:36:31;4.10;99.90
13409;DHT22;6775;49.574;11.170;2023-03-11T14:39:30;4.20;99.90
13409;DHT22;6775;49.574;11.170;2023-03-11T14:42:03;4.30;99.90
13409;DHT22;6775;49.574;11.170;2023-03-11T14:44:34;4.30;99.90
13409;DHT22;6775;49.574;11.170;2023-03-11T14:47:10;4.30;99.90
13409;DHT22;6775;49.574;11.170;2023-03-11T14:49:41;4.30;99.90
13409;DHT22;6775;49.574;11.170;2023-03-11T14:52:15;4.30;99.90
13409;DHT22;6775;49.574;11.170;2023-03-11T14:54:44;4.20;99.90
13409;DHT22;6775;49.574;11.170;2023-03-11T14:57:18;4.20;99.90
13409;DHT22;6775;49.574;11.170;2023-03-11T14:59:50;4.20;99.90
13409;DHT22;6775;49.574;11.170;2023-03-11T15:02:30;4.10;99.90
13409;DHT22;6775;49.574;11.170;2023-03-11T15:05:02;4.20;99.90
13409;DHT22;6775;49.574;11.170;2023-03-11T15:07:34;4.20;99.90
13409;DHT22;6775;49.574;11.170;2023-03-11T15:10:06;4.20;99.90
13409;DHT22;6775;49.574;11.170;2023-03-11T15:12:39;4.30;99.90
13409;DHT22;6775;49.574;11.170;2023-03-11T15:15:21;4.20;99.90
13409;DHT22;6775;49.574;11.170;2023-03-11T15:17:53;4.20;99.90
13409;DHT22;6775;49.574;11.170;2023-03-11T15:20:24;4.10;99.90
13409;DHT22;6775;49.574;11.170;2023-03-11T15:22:54;4.10;99.90
13409;DHT22;6775;49.574;11.170;2023-03-11T15:25:28;4.10;99.90
13409;DHT22;6775;49.574;11.170;2023-03-11T15:27:57;4.00;99.90
13409;DHT22;6775;49.574;11.170;2023-03-11T15:30:27;4.00;99.90
13409;DHT22;6775;49.574;11.170;2023-03-11T15:32:57;4.00;99.90
13409;DHT22;6775;49.574;11.170;2023-03-11T15:35:26;4.10;99.90
13409;DHT22;6775;49.574;11.170;2023-03-11T15:38:10;4.10;99.90
13409;DHT22;6775;49.574;11.170;2023-03-11T15:40:38;4.10;99.90
13409;DHT22;6775;49.574;11.170;2023-03-11T15:43:23;4.20;99.90
13409;DHT22;6775;49.574;11.170;2023-03-11T15:45:51;4.20;99.90
13409;DHT22;6775;49.574;11.170;2023-03-11T15:48:21;4.20;99.90
13409;DHT22;6775;49.574;11.170;2023-03-11T15:50:50;4.10;99.90
13409;DHT22;6775;49.574;11.170;2023-03-11T15:53:21;4.10;99.90
13409;DHT22;6775;49.574;11.170;2023-03-11T15:55:50;4.10;99.90
13409;DHT22;6775;49.574;11.170;2023-03-11T15:58:20;4.10;99.90
13409;DHT22;6775;49.574;11.170;2023-03-11T16:00:49;4.10;99.90
13409;DHT22;6775;49.574;11.170;2023-03-11T16:03:18;4.10;99.90
13409;DHT22;6775;49.574;11.170;2023-03-11T16:05:46;4.10;99.90
13409;DHT22;6775;49.574;11.170;2023-03-11T16:08:14;4.20;99.90
13409;DHT22;6775;49.574;11.170;2023-03-11T16:10:42;4.20;99.90
13409;DHT22;6775;49.574;11.170;2023-03-11T16:13:11;4.20;99.90
13409;DHT22;6775;49.574;11.170;2023-03-11T16:15:41;4.20;99.90
13409;DHT22;6775;49.574;11.170;2023-03-11T16:18:10;4.30;99.90
13409;DHT22;6775;49.574;11.170;2023-03-11T16:20:40;4.20;99.90
13409;DHT22;6775;49.574;11.170;2023-03-11T16:23:14;4.20;99.90
13409;DHT22;6775;49.574;11.170;2023-03-11T16:25:43;4.20;99.90